• Join FlightAware (Why Join?)
  • Login
  • US Flag 
01:18PM EDT


 

Airport Tracker/Info


-or-


 

Live Flight TrackerFlight Track Log ✈ N2102C ✈ 03-Jun-2013 ✈ KMZZ - 05C

Flight Track Log - Related Links

Times and Time Zones

All times are in EDT time to prevent confusion due to time zone crossing. See the N2102C flight status page for this flight to view local times or setup timezone preferences in your user account.

Time Position Orientation Groundspeed Altitude Reporting Facility
EDT Latitude Longitude Course Direction KTS MPH feet Rate Location/Type
11:21AM 40.4922 -85.6869 323° Northwest 96 110 3,500  Level Chicago Center
11:22AM 40.5125 -85.7069 323° Northwest 95 109 4,000 480 Climbing Chicago Center
11:23AM 40.5236 -85.7244 310° West 92 106 4,400 420 Climbing Chicago Center
11:24AM 40.5269 -85.7594 277° West 102 117 4,800 300 Climbing Chicago Center
11:25AM 40.5486 -85.7903 313° West 98 113 5,100 300 Climbing Chicago Center
11:26AM 40.5636 -85.8161 307° West 96 110 5,500 360 Climbing Chicago Center
11:27AM 40.5797 -85.8417 310° West 90 104 5,900 300 Climbing Chicago Center
11:28AM 40.5956 -85.8642 313° West 86 99 6,200 300 Climbing Chicago Center
11:29AM 40.6094 -85.8897 306° West 85 98 6,600 180 Climbing Chicago Center
11:30AM 40.6294 -85.9181 313° West 98 113 6,600  Level Chicago Center
11:31AM 40.6522 -85.9536 310° West 105 121 6,600  Level Chicago Center
11:32AM 40.6692 -85.9831 307° West 111 128 6,600  Level Chicago Center
11:33AM 40.6872 -86.0114 310° West 108 124 6,600  Level Chicago Center
11:34AM 40.7097 -86.0508 307° West 107 123 6,600  Level Chicago Center
11:35AM 40.7250 -86.0739 311° West 106 122 6,600  Level Chicago Center
11:36AM 40.7428 -86.1050 307° West 105 121 6,600  Level Chicago Center
11:36AM 40.7469 -86.1111 312° West 105 121 6,600  Level Chicago Center
11:37AM 40.7608 -86.1278 318° Northwest 102 117 6,600  Level Chicago Center
11:37AM 40.7647 -86.1383 296° West 101 116 6,600  Level Chicago Center
11:38AM 40.7764 -86.1644 301° West 106 122 6,600  Level Chicago Center
11:38AM 40.7808 -86.1728 305° West 106 122 6,600  Level Chicago Center
11:39AM 40.7961 -86.1931 315° West 104 120 6,600  Level Chicago Center
11:39AM 40.8000 -86.1997 308° West 103 119 6,600  Level Chicago Center
11:40AM 40.8142 -86.2214 311° West 104 120 6,600  Level Chicago Center
11:40AM 40.8206 -86.2272 325° Northwest 103 119 6,600  Level Chicago Center
11:41AM 40.8322 -86.2444 312° West 104 120 6,600  Level Chicago Center
11:41AM 40.8431 -86.2611 311° West 103 119 6,600  Level Chicago Center
11:42AM 40.8500 -86.2756 302° West 104 120 6,600  Level Chicago Center
11:42AM 40.8597 -86.2933 306° West 106 122 6,600  Level Chicago Center
11:43AM 40.8675 -86.3097 302° West 104 120 6,600  Level Chicago Center
11:43AM 40.8772 -86.3231 314° West 103 119 6,600  Level Chicago Center
11:44AM 40.8953 -86.3528 309° West 103 119 6,600 -60 Level Chicago Center
11:45AM 40.9147 -86.3831 310° West 106 122 6,500 -60 Descending Chicago Center
11:46AM 40.9336 -86.4094 313° West 100 115 6,500  Level Chicago Center
11:47AM 40.9514 -86.4489 301° West 103 119 6,500  Level Chicago Center
11:48AM 40.9714 -86.4758 315° West 103 119 6,600  Climbing Chicago Center
11:50AM 40.9906 -86.5047 311° West 104 120 6,600  Level Chicago Center
11:51AM 41.0069 -86.5347 306° West 100 115 6,600  Level Chicago Center
11:52AM 41.0225 -86.5667 303° West 102 117 6,600  Level Chicago Center
11:53AM 41.0428 -86.5922 316° Northwest 100 115 6,600  Level Chicago Center
11:54AM 41.0642 -86.6264 310° West 99 114 6,600  Level Chicago Center
11:55AM 41.0794 -86.6592 302° West 103 119 6,600  Level Chicago Center
11:56AM 41.0967 -86.6883 308° West 102 117 6,600  Level Chicago Center
11:57AM 41.1164 -86.7153 314° West 102 117 6,600  Level Chicago Center
11:58AM 41.1347 -86.7519 304° West 103 119 6,700 -300 Climbing Chicago Center
11:59AM 41.1553 -86.7775 317° Northwest 102 117 6,000 -840 Descending Chicago Center
12:00PM 41.1692 -86.8131 297° West 107 123 5,000 -780 Descending Chicago Center
12:01PM 41.1894 -86.8431 312° West 110 127 4,500 -540 Descending Chicago Center